createdAt,value
2018-05-15T00:01:16.746Z,77.80
2018-05-15T00:03:44.360Z,78.20
2018-05-15T00:06:11.955Z,78.10
2018-05-15T00:08:39.553Z,77.80
2018-05-15T00:11:07.124Z,77.30
2018-05-15T00:13:34.747Z,77.60
2018-05-15T00:16:02.323Z,77.30
2018-05-15T00:18:29.923Z,77.20
2018-05-15T00:20:57.793Z,77.10
2018-05-15T00:23:25.486Z,77.60
2018-05-15T00:25:53.089Z,77.20
2018-05-15T00:28:20.656Z,77.40
2018-05-15T00:30:48.241Z,77.60
2018-05-15T00:33:16.648Z,77.60
2018-05-15T00:35:44.243Z,77.60
2018-05-15T00:38:12.024Z,77.30
2018-05-15T00:40:39.599Z,77.90
2018-05-15T00:43:07.185Z,78.80
2018-05-15T00:45:34.743Z,79.50
2018-05-15T00:48:02.353Z,80.30
2018-05-15T00:50:29.932Z,79.70
2018-05-15T00:52:58.327Z,79.50
2018-05-15T00:55:37.728Z,79.40
2018-05-15T00:58:05.329Z,79.10
2018-05-15T01:00:33.012Z,79.50
2018-05-15T01:03:00.586Z,79.80
2018-05-15T01:05:28.169Z,80.30
2018-05-15T01:07:55.768Z,80.50
2018-05-15T01:10:23.339Z,81.10
2018-05-15T01:12:50.917Z,81.80
2018-05-15T01:15:18.510Z,81.60
2018-05-15T01:17:46.104Z,82.10
2018-05-15T01:20:14.455Z,82.10
2018-05-15T01:22:42.031Z,82.10
2018-05-15T01:25:10.547Z,81.40
2018-05-15T01:27:38.139Z,81.30
2018-05-15T01:30:05.700Z,81.80
2018-05-15T01:32:33.327Z,82.80
2018-05-15T01:35:00.915Z,84.00
2018-05-15T01:37:28.500Z,84.80
2018-05-15T01:39:56.256Z,85.10
2018-05-15T01:42:23.829Z,85.30
2018-05-15T01:44:51.437Z,86.20
2018-05-15T01:47:19.020Z,86.30
2018-05-15T01:49:46.759Z,87.00
2018-05-15T01:52:14.576Z,87.60
2018-05-15T01:54:42.150Z,87.40
2018-05-15T01:57:09.724Z,86.60
2018-05-15T01:59:37.312Z,86.40
2018-05-15T02:02:04.879Z,87.70
2018-05-15T02:04:32.467Z,87.80
2018-05-15T02:07:00.021Z,88.20
2018-05-15T02:09:27.596Z,89.40
2018-05-15T02:11:55.468Z,89.10
2018-05-15T02:14:23.829Z,88.70
2018-05-15T02:16:52.904Z,88.80
2018-05-15T02:19:20.612Z,88.80
2018-05-15T02:21:48.211Z,88.90
2018-05-15T02:24:16.632Z,88.70
2018-05-15T02:26:44.420Z,88.60
2018-05-15T02:29:11.989Z,89.60
2018-05-15T02:31:39.561Z,90.10
2018-05-15T02:34:07.293Z,90.00
2018-05-15T02:36:35.641Z,88.70
2018-05-15T02:39:03.944Z,88.10
2018-05-15T02:41:31.551Z,88.20
2018-05-15T02:43:59.137Z,89.00
2018-05-15T02:46:26.724Z,90.30
2018-05-15T02:48:54.317Z,90.00
2018-05-15T02:51:21.908Z,90.10
2018-05-15T02:53:49.479Z,89.70
2018-05-15T02:56:17.292Z,87.50
2018-05-15T02:58:45.064Z,86.60
2018-05-15T03:01:12.656Z,86.40
2018-05-15T03:03:40.271Z,87.20
2018-05-15T03:06:07.884Z,88.20
2018-05-15T03:08:35.456Z,89.40
2018-05-15T03:11:03.052Z,89.60
2018-05-15T03:13:30.660Z,89.40
2018-05-15T03:15:58.233Z,89.00
2018-05-15T03:18:27.321Z,87.90
2018-05-15T03:20:54.883Z,87.20
2018-05-15T03:23:22.486Z,86.60
2018-05-15T03:25:50.200Z,86.50
2018-05-15T03:28:17.785Z,87.10
2018-05-15T03:30:45.361Z,87.70
2018-05-15T03:33:12.952Z,88.60
2018-05-15T03:35:40.636Z,88.40
2018-05-15T03:38:08.236Z,88.30
2018-05-15T03:40:35.812Z,88.70
2018-05-15T03:43:03.582Z,89.50
2018-05-15T03:45:31.154Z,90.00
2018-05-15T03:47:58.739Z,89.20
2018-05-15T03:50:26.336Z,88.10
2018-05-15T03:52:53.905Z,88.10
2018-05-15T03:55:21.515Z,88.20
2018-05-15T03:57:49.363Z,87.90
2018-05-15T04:00:28.678Z,89.10
2018-05-15T04:03:07.944Z,89.90
2018-05-15T04:05:47.292Z,90.00
2018-05-15T04:08:14.860Z,89.90
2018-05-15T04:10:42.460Z,89.10
2018-05-15T04:13:11.677Z,89.10
2018-05-15T04:15:39.273Z,89.00
2018-05-15T04:18:06.842Z,88.20
2018-05-15T04:20:34.431Z,88.20
2018-05-15T04:23:02.022Z,88.70
2018-05-15T04:25:29.611Z,89.10
2018-05-15T04:27:58.796Z,89.20
2018-05-15T04:30:26.335Z,89.20
2018-05-15T04:32:53.945Z,89.00
2018-05-15T04:35:22.327Z,89.40
2018-05-15T04:37:50.226Z,88.70
2018-05-15T04:40:17.820Z,87.40
2018-05-15T04:42:45.403Z,85.80
2018-05-15T04:45:13.768Z,84.50
2018-05-15T04:47:42.859Z,84.30
2018-05-15T04:50:10.464Z,84.30
2018-05-15T04:52:38.044Z,83.00
2018-05-15T04:55:05.639Z,83.40
2018-05-15T04:57:33.262Z,83.70
2018-05-15T05:00:00.947Z,82.90
2018-05-15T05:02:28.684Z,82.60
2018-05-15T05:04:56.295Z,82.70
2018-05-15T05:07:23.884Z,83.20
2018-05-15T05:09:51.471Z,83.90
2018-05-15T05:12:19.234Z,84.00
2018-05-15T05:14:46.839Z,82.80
2018-05-15T05:17:14.425Z,82.00
2018-05-15T05:19:42.163Z,81.00
2018-05-15T05:22:09.834Z,80.80
2018-05-15T05:24:38.208Z,80.70
2018-05-15T05:27:05.902Z,80.70
2018-05-15T05:29:33.420Z,80.80
2018-05-15T05:32:01.829Z,82.20
2018-05-15T05:34:29.428Z,82.20
2018-05-15T05:36:57.044Z,82.30
2018-05-15T05:39:25.380Z,80.80
2018-05-15T05:41:52.975Z,80.80
2018-05-15T05:44:21.342Z,79.90
2018-05-15T05:46:48.992Z,79.80
2018-05-15T05:49:16.572Z,79.40
2018-05-15T05:51:44.928Z,77.10
2018-05-15T05:54:12.553Z,77.00
2018-05-15T05:56:40.415Z,75.40
2018-05-15T05:59:08.009Z,71.70
2018-05-15T06:01:35.601Z,68.20
2018-05-15T06:04:04.016Z,67.50
2018-05-15T06:06:31.616Z,67.50
2018-05-15T06:08:59.216Z,66.90
2018-05-15T06:11:26.799Z,66.10
2018-05-15T06:13:54.380Z,65.40
2018-05-15T06:16:21.975Z,64.20
2018-05-15T06:18:50.441Z,63.20
2018-05-15T06:21:18.027Z,63.20
2018-05-15T06:23:45.759Z,63.40
2018-05-15T06:26:13.391Z,62.10
2018-05-15T06:28:41.268Z,62.30
2018-05-15T06:31:08.838Z,62.10
2018-05-15T06:33:36.464Z,61.90
2018-05-15T06:36:04.034Z,62.20
2018-05-15T06:38:31.698Z,62.00
2018-05-15T06:40:59.225Z,60.40
2018-05-15T06:43:27.580Z,58.90
2018-05-15T06:45:55.139Z,58.90
2018-05-15T06:48:23.476Z,58.30
2018-05-15T06:50:51.096Z,58.30
2018-05-15T06:53:18.722Z,58.00
2018-05-15T06:55:46.360Z,57.20
2018-05-15T06:58:13.928Z,56.20
2018-05-15T07:00:41.549Z,55.90
2018-05-15T07:03:09.182Z,55.60
2018-05-15T07:05:37.660Z,55.80
2018-05-15T07:08:06.043Z,55.10
2018-05-15T07:10:33.617Z,55.10
2018-05-15T07:13:01.229Z,54.00
2018-05-15T07:15:28.812Z,54.50
2018-05-15T07:17:56.425Z,53.80
2018-05-15T07:20:24.052Z,52.20
2018-05-15T07:22:52.433Z,52.30
2018-05-15T07:25:20.030Z,52.30
2018-05-15T07:27:47.673Z,51.60
2018-05-15T07:30:15.285Z,50.40
2018-05-15T07:32:42.888Z,50.80
2018-05-15T07:35:10.555Z,50.50
2018-05-15T07:37:38.148Z,50.00
2018-05-15T07:40:05.748Z,48.50
2018-05-15T07:42:34.364Z,47.60
2018-05-15T07:45:01.956Z,47.60
2018-05-15T07:47:29.559Z,48.10
2018-05-15T07:49:58.044Z,47.60
2018-05-15T07:52:26.393Z,47.20
2018-05-15T07:54:54.015Z,47.20
2018-05-15T07:57:21.607Z,47.00
2018-05-15T07:59:49.184Z,47.10
2018-05-15T08:02:16.829Z,46.80
2018-05-15T08:04:45.219Z,47.40
2018-05-15T08:07:12.800Z,47.40
2018-05-15T08:09:40.388Z,47.40
2018-05-15T08:12:07.998Z,47.20
2018-05-15T08:14:35.588Z,46.60
2018-05-15T08:17:03.317Z,46.40
2018-05-15T08:19:30.903Z,44.40
2018-05-15T08:21:58.520Z,44.40
2018-05-15T08:24:26.125Z,45.70
2018-05-15T08:26:54.448Z,44.90
2018-05-15T08:29:22.169Z,44.80
2018-05-15T08:31:50.046Z,43.40
2018-05-15T08:34:17.640Z,41.90
2018-05-15T08:36:45.272Z,43.40
2018-05-15T08:39:13.159Z,43.50
2018-05-15T08:41:40.774Z,43.10
2018-05-15T08:44:08.388Z,43.30
2018-05-15T08:46:36.006Z,42.90
2018-05-15T08:49:03.591Z,40.40
2018-05-15T08:51:31.224Z,39.30
2018-05-15T08:53:58.935Z,40.70
2018-05-15T08:56:26.555Z,40.10
2018-05-15T08:58:54.282Z,39.20
2018-05-15T09:01:21.894Z,40.00
2018-05-15T09:03:49.498Z,39.50
2018-05-15T09:06:17.086Z,39.90
2018-05-15T09:08:44.763Z,39.30
2018-05-15T09:11:12.392Z,38.90
2018-05-15T09:13:39.972Z,38.80
2018-05-15T09:16:08.343Z,38.10
2018-05-15T09:18:36.227Z,38.00
2018-05-15T09:21:03.820Z,37.00
2018-05-15T09:23:31.459Z,36.40
2018-05-15T09:25:59.085Z,36.80
2018-05-15T09:28:26.897Z,37.00
2018-05-15T09:30:54.848Z,36.50
2018-05-15T09:33:22.538Z,36.20
2018-05-15T09:35:50.204Z,36.90
2018-05-15T09:38:17.832Z,36.00
2018-05-15T09:40:45.411Z,36.90
2018-05-15T09:43:13.007Z,36.00
2018-05-15T09:45:40.623Z,34.90
2018-05-15T09:48:08.220Z,35.00
2018-05-15T09:50:35.984Z,34.30
2018-05-15T09:53:03.598Z,33.60
2018-05-15T09:55:31.235Z,32.20
2018-05-15T09:57:58.830Z,31.00
2018-05-15T10:00:32.045Z,31.70
2018-05-15T10:02:59.656Z,32.70
2018-05-15T10:05:27.276Z,31.70
2018-05-15T10:07:55.094Z,32.40
2018-05-15T10:10:22.792Z,30.80
2018-05-15T10:12:50.423Z,29.50
2018-05-15T10:15:18.272Z,31.20
2018-05-15T10:17:45.861Z,29.70
2018-05-15T10:20:13.493Z,28.70
2018-05-15T10:22:41.204Z,28.70
2018-05-15T10:25:09.065Z,28.20
2018-05-15T10:27:36.685Z,27.00
2018-05-15T10:30:04.359Z,28.10
2018-05-15T10:32:31.965Z,28.30
2018-05-15T10:34:59.588Z,28.50
2018-05-15T10:37:27.216Z,27.60
2018-05-15T10:39:55.117Z,28.00
2018-05-15T10:42:22.723Z,28.20
2018-05-15T10:44:50.350Z,29.60
2018-05-15T10:47:18.084Z,28.70
2018-05-15T10:49:45.705Z,28.80
2018-05-15T10:52:13.288Z,28.90
2018-05-15T10:54:40.904Z,26.80
2018-05-15T10:57:09.309Z,27.10
2018-05-15T10:59:36.984Z,27.10
2018-05-15T11:02:04.572Z,27.10
2018-05-15T11:04:32.351Z,26.70
2018-05-15T11:06:59.999Z,26.40
2018-05-15T11:09:27.600Z,26.60
2018-05-15T11:11:55.217Z,25.30
2018-05-15T11:14:24.449Z,25.80
2018-05-15T11:16:52.815Z,27.80
2018-05-15T11:19:32.284Z,27.80
2018-05-15T11:24:59.723Z,29.00
2018-05-15T11:27:27.286Z,29.10
2018-05-15T11:29:54.904Z,26.90
2018-05-15T11:32:22.588Z,26.60
2018-05-15T11:34:50.298Z,25.30
2018-05-15T11:37:19.398Z,24.50
2018-05-15T11:39:47.820Z,24.50
2018-05-15T11:42:15.399Z,24.20
2018-05-15T11:44:43.154Z,24.60
2018-05-15T11:47:10.706Z,26.90
2018-05-15T11:49:38.953Z,27.90
2018-05-15T11:52:06.757Z,28.30
2018-05-15T11:54:33.683Z,27.80
2018-05-15T11:57:01.257Z,28.60
2018-05-15T11:59:28.837Z,27.90
2018-05-15T12:01:56.777Z,26.70
2018-05-15T12:04:24.416Z,25.70
2018-05-15T12:06:52.751Z,25.60
2018-05-15T12:09:20.340Z,25.50
2018-05-15T12:11:48.699Z,25.70
2018-05-15T12:14:16.325Z,25.60
2018-05-15T12:16:43.885Z,25.00
2018-05-15T12:19:11.476Z,23.20
2018-05-15T12:21:39.049Z,23.60
2018-05-15T12:24:06.653Z,23.90
2018-05-15T12:26:34.374Z,23.80
2018-05-15T12:29:02.760Z,26.00
2018-05-15T12:31:30.349Z,26.00
2018-05-15T12:33:58.176Z,26.40
2018-05-15T12:36:26.614Z,26.70
2018-05-15T12:38:54.222Z,26.60
2018-05-15T12:41:21.982Z,27.40
2018-05-15T12:43:49.573Z,27.90
2018-05-15T12:46:17.375Z,28.70
2018-05-15T12:48:49.022Z,29.30
2018-05-15T12:51:16.545Z,30.80
2018-05-15T12:53:44.142Z,31.80
2018-05-15T12:56:11.776Z,30.10
2018-05-15T12:58:39.434Z,27.50
2018-05-15T13:01:07.192Z,27.10
2018-05-15T13:03:34.777Z,26.70
2018-05-15T13:06:02.391Z,28.30
2018-05-15T13:08:29.982Z,29.50
2018-05-15T13:10:57.582Z,28.20
2018-05-15T13:13:25.203Z,28.50
2018-05-15T13:15:52.872Z,29.50
2018-05-15T13:18:20.449Z,28.70
2018-05-15T13:20:48.014Z,29.00
2018-05-15T13:23:15.714Z,28.50
2018-05-15T13:25:44.068Z,26.90
2018-05-15T13:28:11.625Z,26.80
2018-05-15T13:30:39.225Z,24.20
2018-05-15T13:33:07.108Z,22.60
2018-05-15T13:35:34.974Z,22.50
2018-05-15T13:38:02.696Z,22.20
2018-05-15T13:40:30.292Z,22.20
2018-05-15T13:42:57.916Z,23.30
2018-05-15T13:45:25.747Z,25.10
2018-05-15T13:47:53.748Z,25.50
2018-05-15T13:50:21.377Z,26.70
2018-05-15T13:52:49.805Z,27.80
2018-05-15T13:55:17.395Z,27.80
2018-05-15T13:57:45.021Z,28.30
2018-05-15T14:00:12.671Z,27.90
2018-05-15T14:02:40.233Z,28.60
2018-05-15T14:05:07.799Z,29.90
2018-05-15T14:07:36.220Z,27.10
2018-05-15T14:10:03.934Z,27.00
2018-05-15T14:12:32.366Z,27.30
2018-05-15T14:14:59.906Z,27.30
2018-05-15T14:17:27.549Z,27.60
2018-05-15T14:19:55.904Z,27.10
2018-05-15T14:22:23.484Z,27.10
2018-05-15T14:24:51.840Z,26.50
2018-05-15T14:27:19.430Z,26.50
2018-05-15T14:29:47.744Z,24.50
2018-05-15T14:32:15.356Z,24.40
2018-05-15T14:34:43.875Z,25.00
2018-05-15T14:37:11.476Z,25.00
2018-05-15T14:39:39.093Z,24.60
2018-05-15T14:42:18.567Z,25.50
2018-05-15T14:44:46.134Z,26.00
2018-05-15T14:47:13.813Z,27.00
2018-05-15T14:49:42.161Z,27.70
2018-05-15T14:52:09.736Z,27.70
2018-05-15T14:54:37.325Z,28.60
2018-05-15T14:57:04.905Z,28.40
2018-05-15T14:59:32.565Z,28.70
2018-05-15T15:02:00.136Z,29.30
2018-05-15T15:04:27.870Z,29.90
2018-05-15T15:06:56.272Z,31.20
2018-05-15T15:09:23.886Z,31.20
2018-05-15T15:11:59.294Z,30.10
2018-05-15T15:14:27.033Z,30.10
2018-05-15T15:16:54.665Z,30.00
2018-05-15T15:19:23.085Z,29.50
2018-05-15T15:21:50.665Z,29.50
2018-05-15T15:24:18.208Z,29.10
2018-05-15T15:26:46.155Z,28.30
2018-05-15T15:29:13.759Z,27.90
2018-05-15T15:31:41.379Z,26.90
2018-05-15T15:34:08.929Z,27.30
2018-05-15T15:36:36.497Z,27.60
2018-05-15T15:39:04.285Z,28.00
2018-05-15T15:41:31.838Z,28.00
2018-05-15T15:43:59.475Z,27.90
2018-05-15T15:46:27.049Z,28.50
2018-05-15T15:48:54.640Z,29.20
2018-05-15T15:51:22.244Z,28.20
2018-05-15T15:53:49.822Z,28.80
2018-05-15T15:56:17.394Z,28.60
2018-05-15T15:58:45.103Z,27.10
2018-05-15T16:01:13.618Z,28.90
2018-05-15T16:03:41.418Z,28.80
2018-05-15T16:06:08.999Z,29.10
2018-05-15T16:08:36.590Z,28.60
2018-05-15T16:11:04.678Z,28.50
2018-05-15T16:13:32.258Z,29.90
2018-05-15T16:15:59.845Z,31.40
2018-05-15T16:18:28.236Z,32.90
2018-05-15T16:20:55.797Z,32.90
2018-05-15T16:23:23.408Z,33.40
2018-05-15T16:25:51.262Z,33.30
2018-05-15T16:28:18.840Z,32.50
2018-05-15T16:30:46.518Z,32.60
2018-05-15T16:33:14.138Z,34.20
2018-05-15T16:35:41.729Z,34.20
2018-05-15T16:38:09.306Z,34.20
2018-05-15T16:40:36.917Z,35.90
2018-05-15T16:43:04.501Z,35.50
2018-05-15T16:45:32.153Z,35.30
2018-05-15T16:47:59.916Z,36.60
2018-05-15T16:50:27.588Z,36.70
2018-05-15T16:52:55.201Z,36.50
2018-05-15T16:55:23.775Z,36.80
2018-05-15T16:57:52.363Z,37.00
2018-05-15T17:00:19.941Z,36.90
2018-05-15T17:02:48.275Z,36.70
2018-05-15T17:05:15.863Z,36.70
2018-05-15T17:07:43.412Z,36.30
2018-05-15T17:10:11.032Z,36.70
2018-05-15T17:12:38.622Z,36.70
2018-05-15T17:15:06.211Z,37.80
2018-05-15T17:17:33.784Z,38.00
2018-05-15T17:20:01.390Z,38.20
2018-05-15T17:22:28.982Z,37.10
2018-05-15T17:24:56.558Z,36.40
2018-05-15T17:27:24.926Z,36.80
2018-05-15T17:29:52.625Z,36.80
2018-05-15T17:32:20.173Z,36.70
2018-05-15T17:34:47.775Z,36.50
2018-05-15T17:37:15.412Z,36.10
2018-05-15T17:39:42.984Z,36.90
2018-05-15T17:42:10.586Z,36.90
2018-05-15T17:44:38.985Z,37.80
2018-05-15T17:47:06.597Z,37.70
2018-05-15T17:49:34.230Z,38.00
2018-05-15T17:52:01.911Z,38.50
2018-05-15T17:54:29.686Z,38.80
2018-05-15T17:56:57.272Z,39.10
2018-05-15T17:59:24.870Z,39.70
2018-05-15T18:01:52.689Z,39.60
2018-05-15T18:04:20.424Z,40.00
2018-05-15T18:06:48.061Z,39.50
2018-05-15T18:09:15.809Z,39.60
2018-05-15T18:11:43.452Z,40.20
2018-05-15T18:14:11.071Z,40.80
2018-05-15T18:16:38.682Z,41.10
2018-05-15T18:19:06.271Z,40.80
2018-05-15T18:21:33.846Z,40.70
2018-05-15T18:24:01.644Z,41.20
2018-05-15T18:26:29.443Z,41.50
2018-05-15T18:28:57.053Z,41.20
2018-05-15T18:31:24.685Z,41.90
2018-05-15T18:33:52.417Z,41.40
2018-05-15T18:36:20.041Z,41.60
2018-05-15T18:38:47.672Z,41.70
2018-05-15T18:41:15.307Z,42.10
2018-05-15T18:43:43.072Z,42.10
2018-05-15T18:46:10.698Z,42.50
2018-05-15T18:48:38.306Z,42.60
2018-05-15T18:51:05.898Z,42.80
2018-05-15T18:53:33.508Z,42.90
2018-05-15T18:56:01.113Z,43.60
2018-05-15T18:58:28.719Z,43.80
2018-05-15T19:00:57.080Z,44.20
2018-05-15T19:03:24.699Z,44.20
2018-05-15T19:05:52.451Z,43.00
2018-05-15T19:08:20.065Z,42.90
2018-05-15T19:10:47.663Z,42.90
2018-05-15T19:13:15.268Z,43.20
2018-05-15T19:15:43.016Z,43.30
2018-05-15T19:18:10.646Z,43.30
2018-05-15T19:20:38.563Z,44.50
2018-05-15T19:23:06.497Z,43.60
2018-05-15T19:25:34.114Z,44.10
2018-05-15T19:28:01.647Z,43.70
2018-05-15T19:30:29.369Z,43.30
2018-05-15T19:33:02.782Z,43.90
2018-05-15T19:35:45.230Z,44.40
2018-05-15T19:38:12.873Z,44.60
2018-05-15T19:40:50.589Z,45.50
2018-05-15T19:43:18.290Z,45.10
2018-05-15T19:45:46.142Z,45.10
2018-05-15T19:48:13.785Z,44.60
2018-05-15T19:50:41.529Z,44.50
2018-05-15T19:53:09.340Z,45.30
2018-05-15T19:55:37.214Z,44.60
2018-05-15T19:58:04.844Z,44.90
2018-05-15T20:00:32.538Z,44.80
2018-05-15T20:03:00.181Z,45.00
2018-05-15T20:05:27.840Z,45.10
2018-05-15T20:07:55.626Z,45.10
2018-05-15T20:10:23.238Z,45.20
2018-05-15T20:12:51.657Z,45.30
2018-05-15T20:15:19.361Z,45.20
2018-05-15T20:17:46.911Z,45.60
2018-05-15T20:20:14.567Z,46.50
2018-05-15T20:22:42.135Z,47.30
2018-05-15T20:25:10.377Z,47.60
2018-05-15T20:27:38.237Z,48.20
2018-05-15T20:30:05.872Z,48.60
2018-05-15T20:32:33.482Z,49.20
2018-05-15T20:35:01.201Z,48.90
2018-05-15T20:37:28.720Z,49.40
2018-05-15T20:39:56.281Z,49.50
2018-05-15T20:42:24.021Z,53.40
2018-05-15T20:44:51.654Z,54.40
2018-05-15T20:47:19.263Z,53.80
2018-05-15T20:49:47.678Z,57.10
2018-05-15T20:52:16.340Z,59.70
2018-05-15T20:54:43.868Z,59.70
2018-05-15T20:57:11.523Z,58.50
2018-05-15T20:59:39.101Z,58.80
2018-05-15T21:02:06.717Z,58.90
2018-05-15T21:04:34.427Z,59.30
2018-05-15T21:07:02.036Z,59.80
2018-05-15T21:09:29.605Z,60.60
2018-05-15T21:11:57.182Z,61.80
2018-05-15T21:14:24.804Z,61.30
2018-05-15T21:16:52.360Z,62.10
2018-05-15T21:19:20.980Z,64.70
2018-05-15T21:21:48.616Z,64.70
2018-05-15T21:24:16.161Z,64.30
2018-05-15T21:26:44.519Z,64.10
2018-05-15T21:29:12.117Z,64.00
2018-05-15T21:31:39.693Z,64.20
2018-05-15T21:34:07.458Z,64.60
2018-05-15T21:36:35.279Z,67.20
2018-05-15T21:39:03.624Z,73.90
2018-05-15T21:41:31.448Z,73.90
2018-05-15T21:43:59.034Z,75.30
2018-05-15T21:46:26.737Z,76.40
2018-05-15T21:48:54.347Z,77.40
2018-05-15T21:51:21.959Z,76.30
2018-05-15T21:53:49.508Z,79.30
2018-05-15T21:56:17.097Z,79.90
2018-05-15T21:58:44.662Z,78.20
2018-05-15T22:01:12.269Z,78.40
2018-05-15T22:03:39.856Z,79.30
2018-05-15T22:06:07.447Z,81.50
2018-05-15T22:08:35.308Z,82.80
2018-05-15T22:11:14.292Z,83.00
2018-05-15T22:13:53.554Z,83.00
2018-05-15T22:16:33.671Z,85.60
2018-05-15T22:19:13.025Z,85.50
2018-05-15T22:21:52.283Z,86.30
2018-05-15T22:24:37.560Z,86.80
2018-05-15T22:27:05.130Z,87.20
2018-05-15T22:29:32.833Z,85.70
2018-05-15T22:32:00.461Z,88.70
2018-05-15T22:34:28.061Z,87.20
2018-05-15T22:36:55.613Z,89.70
2018-05-15T22:39:23.212Z,90.60
2018-05-15T22:41:51.685Z,91.80
2018-05-15T22:44:19.255Z,91.70
2018-05-15T22:46:46.824Z,91.60
2018-05-15T22:49:14.393Z,91.60
2018-05-15T22:51:41.967Z,91.90
2018-05-15T22:54:09.537Z,91.30
2018-05-15T22:56:37.100Z,92.20
2018-05-15T22:59:04.698Z,91.40
2018-05-15T23:01:32.264Z,92.00
2018-05-15T23:03:59.835Z,91.90
2018-05-15T23:06:27.541Z,91.20
2018-05-15T23:08:55.033Z,91.10
2018-05-15T23:11:22.624Z,91.00
2018-05-15T23:13:50.192Z,90.70
2018-05-15T23:16:17.751Z,91.20
2018-05-15T23:18:45.348Z,90.30
2018-05-15T23:21:13.041Z,90.50
2018-05-15T23:23:41.363Z,91.00
2018-05-15T23:26:08.934Z,90.70
2018-05-15T23:28:36.523Z,90.60
2018-05-15T23:31:04.839Z,91.10
2018-05-15T23:33:32.411Z,91.10
2018-05-15T23:35:59.977Z,91.40
2018-05-15T23:38:27.714Z,91.70
2018-05-15T23:40:56.013Z,92.10
2018-05-15T23:43:23.592Z,92.10
2018-05-15T23:45:51.243Z,92.30
2018-05-15T23:48:18.894Z,92.90
2018-05-15T23:50:46.467Z,92.50
2018-05-15T23:53:14.029Z,92.00
2018-05-15T23:55:41.672Z,93.20
2018-05-15T23:58:09.255Z,93.70
